»·PEaware :: URF3 KAPC-KTRK

URF3 :: KAPC-KTRK

FLIGHT INFORMATION

Flight Status: Arrived
Operator: Unknown
More flights by this operator :: More flights under this callsign
Pilot: Jamie L. (18851)
Aircraft: PILATUS PC-12 EAGLE
(PC12)
More flights by this aircraft type
Origin: KAPC Napa Co
United States
Destination: KTRK Truckee-Tahoe
United States
More flights between these airports :: More routes between these airports
Route: +LIZRD4 CROIT V150 SAC SWR
File this flight plan on PilotEdge
Remarks: SURF AIR 3
Altitude:
(Current/Filed)
15,000ft
Speed:
(Current/Filed)
210kts
Departed: 16-Apr-18 12:24 PM
Arrived: 16-Apr-18 01:00 PM
Distance/Time
Traveled:
120nm/0:36
Distance/Time
To Go:
Arrived

Flight Plot

Page will automatically refresh every two minutes.

Flight plan parsing failed; only flown route is shown


Map Options




Map Legend


Flown Route
Filed Route
Departure Airport
Arrival Airport
Navaid (VOR, NDB)
Fix

Horizontal Profiles

Position Reports

Time Latitude Longitude Heading Altitude Ground
Speed
16-Apr-18 11:57 38.219007 -122.275697 324 40ft 0kts
16-Apr-18 11:58 38.219007 -122.275697 324 40ft 0kts
16-Apr-18 11:59 38.219007 -122.275697 324 40ft 0kts
16-Apr-18 12:00 38.219007 -122.275697 324 40ft 0kts
16-Apr-18 12:01 38.219007 -122.275697 324 40ft 0kts
16-Apr-18 12:02 38.219007 -122.275697 324 40ft 0kts
16-Apr-18 12:03 38.219007 -122.275697 324 40ft 0kts
16-Apr-18 12:04 38.219007 -122.275697 324 40ft 0kts
16-Apr-18 12:05 38.219007 -122.275697 324 40ft 0kts
16-Apr-18 12:06 38.219007 -122.275697 324 40ft 0kts
16-Apr-18 12:07 38.219007 -122.275697 324 40ft 0kts
16-Apr-18 12:08 38.219007 -122.275697 324 40ft 0kts
16-Apr-18 12:09 38.219101 -122.275784 323 40ft 0kts
16-Apr-18 12:10 38.219104 -122.275786 323 40ft 0kts
16-Apr-18 12:11 38.219106 -122.275788 323 40ft 0kts
16-Apr-18 12:12 38.219109 -122.275791 323 40ft 0kts
16-Apr-18 12:13 38.219111 -122.275793 323 40ft 0kts
16-Apr-18 12:14 38.219114 -122.275796 323 40ft 0kts
16-Apr-18 12:15 38.219117 -122.275798 323 40ft 0kts
16-Apr-18 12:16 38.216227 -122.275404 148 40ft 23kts
16-Apr-18 12:17 38.211773 -122.272290 243 40ft 9kts
16-Apr-18 12:18 38.211308 -122.274723 256 40ft 8kts
16-Apr-18 12:19 38.210633 -122.278282 256 40ft 12kts
16-Apr-18 12:20 38.209604 -122.283778 255 40ft 0kts
16-Apr-18 12:21 38.209607 -122.283762 255 40ft 0kts
16-Apr-18 12:22 38.209558 -122.284021 256 40ft 7kts
16-Apr-18 12:23 38.222391 -122.278317 8 306ft 96kts
16-Apr-18 12:24 38.230538 -122.289971 216 1718ft 117kts
16-Apr-18 12:25 38.199349 -122.323250 237 3431ft 172kts
16-Apr-18 12:26 38.169018 -122.372245 192 4955ft 198kts
16-Apr-18 12:27 38.123276 -122.327844 139 6488ft 220kts
16-Apr-18 12:28 38.076175 -122.278062 149 7989ft 222kts
16-Apr-18 12:29 38.059596 -122.202394 68 9493ft 244kts
16-Apr-18 12:30 38.096626 -122.128688 48 10993ft 252kts
16-Apr-18 12:31 38.140171 -122.056617 47 12492ft 262kts
16-Apr-18 12:32 38.185652 -121.981684 48 14002ft 271kts
16-Apr-18 12:33 38.233065 -121.903187 48 14993ft 298kts
16-Apr-18 12:34 38.286070 -121.814803 49 14998ft 324kts
16-Apr-18 12:35 38.341289 -121.722341 49 14997ft 329kts
16-Apr-18 12:36 38.396938 -121.629695 48 14995ft 330kts
16-Apr-18 12:37 38.452654 -121.536766 49 14997ft 330kts
16-Apr-18 12:38 38.507750 -121.442648 50 14994ft 330kts
16-Apr-18 12:39 38.562509 -121.348436 50 14989ft 331kts
16-Apr-18 12:40 38.617470 -121.253794 50 14989ft 330kts
16-Apr-18 12:41 38.672203 -121.159398 50 14991ft 331kts
16-Apr-18 12:42 38.726947 -121.064768 50 14993ft 330kts
16-Apr-18 12:43 38.781704 -120.969686 50 15011ft 331kts
16-Apr-18 12:44 38.836272 -120.874553 50 15017ft 332kts
16-Apr-18 12:45 38.891107 -120.778937 50 15019ft 332kts
16-Apr-18 12:46 38.945693 -120.683451 50 15023ft 332kts
16-Apr-18 12:47 39.000167 -120.587845 51 15026ft 332kts
16-Apr-18 12:48 39.051304 -120.497613 50 13992ft 292kts
16-Apr-18 12:49 39.098091 -120.415118 51 12791ft 280kts
16-Apr-18 12:50 39.143628 -120.334518 51 11595ft 276kts
16-Apr-18 12:51 39.185959 -120.269693 37 11012ft 249kts
16-Apr-18 12:52 39.228764 -120.203327 51 9895ft 233kts
16-Apr-18 12:53 39.260605 -120.166369 18 8856ft 216kts
16-Apr-18 12:54 39.302872 -120.169116 33 7952ft 171kts
16-Apr-18 12:55 39.290916 -120.128005 148 7731ft 162kts
16-Apr-18 12:56 39.283521 -120.102367 325 7065ft 134kts
16-Apr-18 12:57 39.304122 -120.108550 334 6643ft 101kts
16-Apr-18 12:58 39.317588 -120.136515 287 5911ft 76kts
16-Apr-18 12:59 39.320151 -120.143350 207 5905ft 0kts
16-Apr-18 13:00 39.319707 -120.143696 211 5905ft 7kts
16-Apr-18 13:01 39.320631 -120.146542 299 5905ft 12kts
16-Apr-18 13:02 39.320850 -120.147680 27 5905ft 0kts
16-Apr-18 13:03 39.320850 -120.147680 27 5905ft 0kts

Navigation Log

Ident Type
Flight plan parsing failed, navigation log unavailable